sensor_id;sensor_type;location;lat;lon;timestamp;temperature;humidity
63802;DHT22;49949;43.060;25.624;2023-07-13T00:00:25;22.10;99.90
63802;DHT22;49949;43.060;25.624;2023-07-13T00:02:50;22.00;99.90
63802;DHT22;49949;43.060;25.624;2023-07-13T00:05:22;22.00;99.90
63802;DHT22;49949;43.060;25.624;2023-07-13T00:07:49;21.90;99.90
63802;DHT22;49949;43.060;25.624;2023-07-13T00:10:15;21.90;99.90
63802;DHT22;49949;43.060;25.624;2023-07-13T00:12:41;21.90;99.90
63802;DHT22;49949;43.060;25.624;2023-07-13T00:15:18;21.90;99.90
63802;DHT22;49949;43.060;25.624;2023-07-13T00:17:53;21.80;99.90
63802;DHT22;49949;43.060;25.624;2023-07-13T00:20:20;21.80;99.90
63802;DHT22;49949;43.060;25.624;2023-07-13T00:22:48;21.70;99.90
63802;DHT22;49949;43.060;25.624;2023-07-13T00:25:14;21.70;99.90
63802;DHT22;49949;43.060;25.624;2023-07-13T00:27:42;21.70;99.90
63802;DHT22;49949;43.060;25.624;2023-07-13T00:30:08;21.60;99.90
63802;DHT22;49949;43.060;25.624;2023-07-13T00:32:34;21.60;99.90
63802;DHT22;49949;43.060;25.624;2023-07-13T00:35:01;21.60;99.90
63802;DHT22;49949;43.060;25.624;2023-07-13T00:37:27;21.60;99.90
63802;DHT22;49949;43.060;25.624;2023-07-13T00:39:52;21.50;99.90
63802;DHT22;49949;43.060;25.624;2023-07-13T00:42:18;21.50;99.90
63802;DHT22;49949;43.060;25.624;2023-07-13T00:47:28;21.50;99.90
63802;DHT22;49949;43.060;25.624;2023-07-13T00:49:54;21.50;99.90
63802;DHT22;49949;43.060;25.624;2023-07-13T00:52:19;21.60;99.90
63802;DHT22;49949;43.060;25.624;2023-07-13T00:54:46;21.60;99.90
63802;DHT22;49949;43.060;25.624;2023-07-13T00:57:18;21.50;99.90
63802;DHT22;49949;43.060;25.624;2023-07-13T00:59:49;21.40;99.90
63802;DHT22;49949;43.060;25.624;2023-07-13T01:02:17;21.40;99.90
63802;DHT22;49949;43.060;25.624;2023-07-13T01:04:42;21.40;99.90
63802;DHT22;49949;43.060;25.624;2023-07-13T01:07:09;21.40;99.90
63802;DHT22;49949;43.060;25.624;2023-07-13T01:09:36;21.40;99.90
63802;DHT22;49949;43.060;25.624;2023-07-13T01:12:02;21.40;99.90
63802;DHT22;49949;43.060;25.624;2023-07-13T01:14:28;21.40;99.90
63802;DHT22;49949;43.060;25.624;2023-07-13T01:16:54;21.40;99.90
63802;DHT22;49949;43.060;25.624;2023-07-13T01:21:52;21.30;99.90
63802;DHT22;49949;43.060;25.624;2023-07-13T01:24:18;21.20;99.90
63802;DHT22;49949;43.060;25.624;2023-07-13T01:26:43;21.30;99.90
63802;DHT22;49949;43.060;25.624;2023-07-13T01:29:09;21.30;99.90
63802;DHT22;49949;43.060;25.624;2023-07-13T01:31:35;21.20;99.90
63802;DHT22;49949;43.060;25.624;2023-07-13T01:34:00;21.20;99.90
63802;DHT22;49949;43.060;25.624;2023-07-13T01:36:26;21.10;99.90
63802;DHT22;49949;43.060;25.624;2023-07-13T01:38:52;21.10;99.90
63802;DHT22;49949;43.060;25.624;2023-07-13T01:41:18;21.20;99.90
63802;DHT22;49949;43.060;25.624;2023-07-13T01:43:43;21.10;99.90
63802;DHT22;49949;43.060;25.624;2023-07-13T01:46:09;21.20;99.90
63802;DHT22;49949;43.060;25.624;2023-07-13T01:48:35;21.20;99.90
63802;DHT22;49949;43.060;25.624;2023-07-13T01:51:01;21.20;99.90
63802;DHT22;49949;43.060;25.624;2023-07-13T01:53:26;21.10;99.90
63802;DHT22;49949;43.060;25.624;2023-07-13T01:55:52;21.10;99.90
63802;DHT22;49949;43.060;25.624;2023-07-13T01:58:17;21.00;99.90
63802;DHT22;49949;43.060;25.624;2023-07-13T02:00:43;21.00;99.90
63802;DHT22;49949;43.060;25.624;2023-07-13T02:03:09;21.00;99.90
63802;DHT22;49949;43.060;25.624;2023-07-13T02:05:35;21.00;99.90
63802;DHT22;49949;43.060;25.624;2023-07-13T02:08:01;21.00;99.90
63802;DHT22;49949;43.060;25.624;2023-07-13T02:10:27;21.00;99.90
63802;DHT22;49949;43.060;25.624;2023-07-13T02:12:54;20.90;99.90
63802;DHT22;49949;43.060;25.624;2023-07-13T02:15:19;20.90;99.90
63802;DHT22;49949;43.060;25.624;2023-07-13T02:17:46;20.90;99.90
63802;DHT22;49949;43.060;25.624;2023-07-13T02:20:12;20.90;99.90
63802;DHT22;49949;43.060;25.624;2023-07-13T02:22:37;20.80;99.90
63802;DHT22;49949;43.060;25.624;2023-07-13T02:25:03;20.90;99.90
63802;DHT22;49949;43.060;25.624;2023-07-13T02:27:29;20.90;99.90
63802;DHT22;49949;43.060;25.624;2023-07-13T02:29:55;20.80;99.90
63802;DHT22;49949;43.060;25.624;2023-07-13T02:32:21;20.80;99.90
63802;DHT22;49949;43.060;25.624;2023-07-13T02:34:46;20.80;99.90
63802;DHT22;49949;43.060;25.624;2023-07-13T02:37:12;20.70;99.90
63802;DHT22;49949;43.060;25.624;2023-07-13T02:39:38;20.70;99.90
63802;DHT22;49949;43.060;25.624;2023-07-13T02:42:04;20.70;99.90
63802;DHT22;49949;43.060;25.624;2023-07-13T02:44:29;20.70;99.90
63802;DHT22;49949;43.060;25.624;2023-07-13T02:46:55;20.70;99.90
63802;DHT22;49949;43.060;25.624;2023-07-13T02:49:21;20.70;99.90
63802;DHT22;49949;43.060;25.624;2023-07-13T02:51:47;20.60;99.90
63802;DHT22;49949;43.060;25.624;2023-07-13T02:54:12;20.70;99.90
63802;DHT22;49949;43.060;25.624;2023-07-13T02:56:39;20.70;99.90
63802;DHT22;49949;43.060;25.624;2023-07-13T02:59:04;20.60;99.90
63802;DHT22;49949;43.060;25.624;2023-07-13T03:01:30;20.60;99.90
63802;DHT22;49949;43.060;25.624;2023-07-13T03:03:58;20.60;99.90
63802;DHT22;49949;43.060;25.624;2023-07-13T03:06:23;20.60;99.90
63802;DHT22;49949;43.060;25.624;2023-07-13T03:08:50;20.70;99.90
63802;DHT22;49949;43.060;25.624;2023-07-13T03:11:18;20.70;99.90
63802;DHT22;49949;43.060;25.624;2023-07-13T03:13:45;20.80;99.90
63802;DHT22;49949;43.060;25.624;2023-07-13T03:16:12;20.80;99.90
63802;DHT22;49949;43.060;25.624;2023-07-13T03:18:38;20.90;99.90
63802;DHT22;49949;43.060;25.624;2023-07-13T03:21:05;20.90;99.90
63802;DHT22;49949;43.060;25.624;2023-07-13T03:23:31;20.90;99.90
63802;DHT22;49949;43.060;25.624;2023-07-13T03:26:09;20.90;99.90
63802;DHT22;49949;43.060;25.624;2023-07-13T03:28:36;21.00;99.90
63802;DHT22;49949;43.060;25.624;2023-07-13T03:31:15;21.10;99.90
63802;DHT22;49949;43.060;25.624;2023-07-13T03:33:42;21.20;99.90
63802;DHT22;49949;43.060;25.624;2023-07-13T03:36:16;21.40;99.90
63802;DHT22;49949;43.060;25.624;2023-07-13T03:38:52;21.60;99.90
63802;DHT22;49949;43.060;25.624;2023-07-13T03:41:19;21.80;99.90
63802;DHT22;49949;43.060;25.624;2023-07-13T03:43:44;21.90;99.90
63802;DHT22;49949;43.060;25.624;2023-07-13T03:46:10;22.10;99.90
63802;DHT22;49949;43.060;25.624;2023-07-13T03:48:36;22.30;99.90
63802;DHT22;49949;43.060;25.624;2023-07-13T03:51:02;22.40;99.90
63802;DHT22;49949;43.060;25.624;2023-07-13T03:53:28;22.60;99.90
63802;DHT22;49949;43.060;25.624;2023-07-13T03:55:53;22.80;99.90
63802;DHT22;49949;43.060;25.624;2023-07-13T03:58:35;23.10;99.90
63802;DHT22;49949;43.060;25.624;2023-07-13T04:01:02;23.30;99.90
63802;DHT22;49949;43.060;25.624;2023-07-13T04:03:28;23.60;99.90
63802;DHT22;49949;43.060;25.624;2023-07-13T04:05:56;23.80;99.90
63802;DHT22;49949;43.060;25.624;2023-07-13T04:08:29;24.10;99.90
63802;DHT22;49949;43.060;25.624;2023-07-13T04:10:55;24.20;99.90
63802;DHT22;49949;43.060;25.624;2023-07-13T04:13:21;24.50;99.90
63802;DHT22;49949;43.060;25.624;2023-07-13T04:15:47;24.70;99.90
63802;DHT22;49949;43.060;25.624;2023-07-13T04:18:13;24.80;99.90
63802;DHT22;49949;43.060;25.624;2023-07-13T04:20:38;24.80;99.90
63802;DHT22;49949;43.060;25.624;2023-07-13T04:23:04;24.80;99.90
63802;DHT22;49949;43.060;25.624;2023-07-13T04:25:30;24.80;99.90
63802;DHT22;49949;43.060;25.624;2023-07-13T04:27:56;25.10;99.90
63802;DHT22;49949;43.060;25.624;2023-07-13T04:30:22;25.20;99.90
63802;DHT22;49949;43.060;25.624;2023-07-13T04:32:50;25.40;99.90
63802;DHT22;49949;43.060;25.624;2023-07-13T04:35:18;25.70;99.90
63802;DHT22;49949;43.060;25.624;2023-07-13T04:37:46;25.90;99.90
63802;DHT22;49949;43.060;25.624;2023-07-13T04:40:12;25.90;99.90
63802;DHT22;49949;43.060;25.624;2023-07-13T04:42:38;25.70;99.90
63802;DHT22;49949;43.060;25.624;2023-07-13T04:45:06;26.00;99.90
63802;DHT22;49949;43.060;25.624;2023-07-13T04:47:32;26.40;99.90
63802;DHT22;49949;43.060;25.624;2023-07-13T04:49:57;26.80;99.90
63802;DHT22;49949;43.060;25.624;2023-07-13T04:52:23;26.90;99.90
63802;DHT22;49949;43.060;25.624;2023-07-13T04:54:49;27.00;99.90
63802;DHT22;49949;43.060;25.624;2023-07-13T04:57:15;27.30;99.90
63802;DHT22;49949;43.060;25.624;2023-07-13T04:59:41;27.80;99.90
63802;DHT22;49949;43.060;25.624;2023-07-13T05:02:07;28.00;99.90
63802;DHT22;49949;43.060;25.624;2023-07-13T05:04:32;28.30;99.90
63802;DHT22;49949;43.060;25.624;2023-07-13T05:06:59;28.80;99.90
63802;DHT22;49949;43.060;25.624;2023-07-13T05:09:25;29.20;99.90
63802;DHT22;49949;43.060;25.624;2023-07-13T05:11:51;29.40;99.90
63802;DHT22;49949;43.060;25.624;2023-07-13T05:14:17;29.40;99.90
63802;DHT22;49949;43.060;25.624;2023-07-13T05:16:43;29.80;99.90
63802;DHT22;49949;43.060;25.624;2023-07-13T05:19:09;30.30;99.90
63802;DHT22;49949;43.060;25.624;2023-07-13T05:21:35;30.40;99.90
63802;DHT22;49949;43.060;25.624;2023-07-13T05:24:01;30.70;97.70
63802;DHT22;49949;43.060;25.624;2023-07-13T05:26:26;31.00;97.10
63802;DHT22;49949;43.060;25.624;2023-07-13T05:28:52;31.30;95.00
63802;DHT22;49949;43.060;25.624;2023-07-13T05:31:18;31.50;94.00
63802;DHT22;49949;43.060;25.624;2023-07-13T05:33:43;31.80;92.70
63802;DHT22;49949;43.060;25.624;2023-07-13T05:36:09;32.00;92.20
63802;DHT22;49949;43.060;25.624;2023-07-13T05:38:35;32.20;90.70
63802;DHT22;49949;43.060;25.624;2023-07-13T05:41:01;32.40;89.00
63802;DHT22;49949;43.060;25.624;2023-07-13T05:43:26;32.70;87.20
63802;DHT22;49949;43.060;25.624;2023-07-13T05:45:56;32.80;86.70
63802;DHT22;49949;43.060;25.624;2023-07-13T05:48:22;32.50;88.00
63802;DHT22;49949;43.060;25.624;2023-07-13T05:50:48;32.20;90.40
63802;DHT22;49949;43.060;25.624;2023-07-13T05:53:13;32.00;91.10
63802;DHT22;49949;43.060;25.624;2023-07-13T05:55:43;32.10;90.40
63802;DHT22;49949;43.060;25.624;2023-07-13T05:58:10;32.20;88.80
63802;DHT22;49949;43.060;25.624;2023-07-13T06:00:36;32.40;88.10
63802;DHT22;49949;43.060;25.624;2023-07-13T06:03:02;32.50;87.10
63802;DHT22;49949;43.060;25.624;2023-07-13T06:05:27;32.50;86.90
63802;DHT22;49949;43.060;25.624;2023-07-13T06:07:54;32.60;85.50
63802;DHT22;49949;43.060;25.624;2023-07-13T06:10:20;32.60;83.80
63802;DHT22;49949;43.060;25.624;2023-07-13T06:12:46;32.30;85.50
63802;DHT22;49949;43.060;25.624;2023-07-13T06:15:13;31.90;86.50
63802;DHT22;49949;43.060;25.624;2023-07-13T06:17:39;31.60;86.50
63802;DHT22;49949;43.060;25.624;2023-07-13T06:20:05;31.40;88.30
63802;DHT22;49949;43.060;25.624;2023-07-13T06:22:31;31.20;87.70
63802;DHT22;49949;43.060;25.624;2023-07-13T06:24:57;31.10;89.10
63802;DHT22;49949;43.060;25.624;2023-07-13T06:27:23;31.00;88.80
63802;DHT22;49949;43.060;25.624;2023-07-13T06:29:48;31.10;88.00
63802;DHT22;49949;43.060;25.624;2023-07-13T06:32:14;31.10;86.70
63802;DHT22;49949;43.060;25.624;2023-07-13T06:34:40;31.00;86.10
63802;DHT22;49949;43.060;25.624;2023-07-13T06:37:05;31.00;88.10
63802;DHT22;49949;43.060;25.624;2023-07-13T06:39:32;31.10;87.90
63802;DHT22;49949;43.060;25.624;2023-07-13T06:41:58;31.30;88.20
63802;DHT22;49949;43.060;25.624;2023-07-13T06:44:25;31.70;85.80
63802;DHT22;49949;43.060;25.624;2023-07-13T06:46:50;31.70;85.30
63802;DHT22;49949;43.060;25.624;2023-07-13T06:49:16;31.80;85.10
63802;DHT22;49949;43.060;25.624;2023-07-13T06:51:42;32.00;84.70
63802;DHT22;49949;43.060;25.624;2023-07-13T06:54:07;32.00;85.60
63802;DHT22;49949;43.060;25.624;2023-07-13T06:56:33;32.10;84.90
63802;DHT22;49949;43.060;25.624;2023-07-13T06:58:59;32.10;83.90
63802;DHT22;49949;43.060;25.624;2023-07-13T07:01:25;32.20;84.50
63802;DHT22;49949;43.060;25.624;2023-07-13T07:03:51;32.20;85.30
63802;DHT22;49949;43.060;25.624;2023-07-13T07:06:19;32.30;84.40
63802;DHT22;49949;43.060;25.624;2023-07-13T07:08:45;32.50;84.50
63802;DHT22;49949;43.060;25.624;2023-07-13T07:11:13;32.60;84.10
63802;DHT22;49949;43.060;25.624;2023-07-13T07:13:39;33.00;83.00
63802;DHT22;49949;43.060;25.624;2023-07-13T07:16:05;33.20;82.30
63802;DHT22;49949;43.060;25.624;2023-07-13T07:18:31;33.20;82.90
63802;DHT22;49949;43.060;25.624;2023-07-13T07:20:56;33.30;81.90
63802;DHT22;49949;43.060;25.624;2023-07-13T07:23:22;33.40;83.90
63802;DHT22;49949;43.060;25.624;2023-07-13T07:25:48;33.80;83.20
63802;DHT22;49949;43.060;25.624;2023-07-13T07:28:15;34.10;80.20
63802;DHT22;49949;43.060;25.624;2023-07-13T07:30:44;34.20;80.40
63802;DHT22;49949;43.060;25.624;2023-07-13T07:33:10;34.10;80.80
63802;DHT22;49949;43.060;25.624;2023-07-13T07:35:36;34.10;80.40
63802;DHT22;49949;43.060;25.624;2023-07-13T07:38:02;34.20;80.70
63802;DHT22;49949;43.060;25.624;2023-07-13T07:40:27;34.20;79.60
63802;DHT22;49949;43.060;25.624;2023-07-13T07:42:53;34.20;79.70
63802;DHT22;49949;43.060;25.624;2023-07-13T07:45:20;34.20;79.30
63802;DHT22;49949;43.060;25.624;2023-07-13T07:47:47;34.20;79.00
63802;DHT22;49949;43.060;25.624;2023-07-13T07:50:13;34.30;77.90
63802;DHT22;49949;43.060;25.624;2023-07-13T07:52:39;34.20;77.60
63802;DHT22;49949;43.060;25.624;2023-07-13T07:55:06;34.30;78.20
63802;DHT22;49949;43.060;25.624;2023-07-13T07:57:32;34.50;78.10
63802;DHT22;49949;43.060;25.624;2023-07-13T07:59:58;34.70;78.00
63802;DHT22;49949;43.060;25.624;2023-07-13T08:02:25;35.10;76.00
63802;DHT22;49949;43.060;25.624;2023-07-13T08:04:51;35.50;74.60
63802;DHT22;49949;43.060;25.624;2023-07-13T08:07:17;35.50;74.60
63802;DHT22;49949;43.060;25.624;2023-07-13T08:09:42;35.70;73.20
63802;DHT22;49949;43.060;25.624;2023-07-13T08:12:08;35.70;74.00
63802;DHT22;49949;43.060;25.624;2023-07-13T08:14:34;35.70;72.60
63802;DHT22;49949;43.060;25.624;2023-07-13T08:17:00;36.00;74.20
63802;DHT22;49949;43.060;25.624;2023-07-13T08:19:25;36.10;71.70
63802;DHT22;49949;43.060;25.624;2023-07-13T08:21:51;36.10;71.40
63802;DHT22;49949;43.060;25.624;2023-07-13T08:24:17;36.20;71.40
63802;DHT22;49949;43.060;25.624;2023-07-13T08:26:44;36.50;70.00
63802;DHT22;49949;43.060;25.624;2023-07-13T08:29:11;36.70;70.00
63802;DHT22;49949;43.060;25.624;2023-07-13T08:31:37;37.10;69.80
63802;DHT22;49949;43.060;25.624;2023-07-13T08:34:03;37.30;68.90
63802;DHT22;49949;43.060;25.624;2023-07-13T08:36:29;37.20;65.00
63802;DHT22;49949;43.060;25.624;2023-07-13T08:38:55;37.10;63.60
63802;DHT22;49949;43.060;25.624;2023-07-13T08:41:21;37.10;65.30
63802;DHT22;49949;43.060;25.624;2023-07-13T08:43:56;37.40;63.50
63802;DHT22;49949;43.060;25.624;2023-07-13T08:46:32;37.70;61.30
63802;DHT22;49949;43.060;25.624;2023-07-13T08:49:03;37.80;59.60
63802;DHT22;49949;43.060;25.624;2023-07-13T08:51:45;37.90;60.10
63802;DHT22;49949;43.060;25.624;2023-07-13T08:54:36;38.30;59.10
63802;DHT22;49949;43.060;25.624;2023-07-13T08:57:16;38.60;56.50
63802;DHT22;49949;43.060;25.624;2023-07-13T08:59:43;38.80;56.80
63802;DHT22;49949;43.060;25.624;2023-07-13T09:02:41;39.00;56.90
63802;DHT22;49949;43.060;25.624;2023-07-13T09:05:24;39.10;55.80
63802;DHT22;49949;43.060;25.624;2023-07-13T09:10:46;39.70;54.10
63802;DHT22;49949;43.060;25.624;2023-07-13T09:13:41;39.80;53.80
63802;DHT22;49949;43.060;25.624;2023-07-13T09:16:09;40.00;52.30
63802;DHT22;49949;43.060;25.624;2023-07-13T09:18:44;39.70;52.20
63802;DHT22;49949;43.060;25.624;2023-07-13T09:21:18;39.60;49.30
63802;DHT22;49949;43.060;25.624;2023-07-13T09:23:47;39.60;47.00
63802;DHT22;49949;43.060;25.624;2023-07-13T09:26:18;39.70;48.90
63802;DHT22;49949;43.060;25.624;2023-07-13T09:29:09;39.90;50.60
63802;DHT22;49949;43.060;25.624;2023-07-13T09:31:43;40.00;50.30
63802;DHT22;49949;43.060;25.624;2023-07-13T09:34:12;39.60;49.00
63802;DHT22;49949;43.060;25.624;2023-07-13T09:36:38;39.60;49.50
63802;DHT22;49949;43.060;25.624;2023-07-13T09:44:12;40.40;48.40
63802;DHT22;49949;43.060;25.624;2023-07-13T09:46:43;40.70;49.00
63802;DHT22;49949;43.060;25.624;2023-07-13T09:49:10;40.80;47.90
63802;DHT22;49949;43.060;25.624;2023-07-13T09:51:45;40.60;49.20
63802;DHT22;49949;43.060;25.624;2023-07-13T09:54:23;40.40;49.20
63802;DHT22;49949;43.060;25.624;2023-07-13T09:56:57;40.40;49.60
63802;DHT22;49949;43.060;25.624;2023-07-13T09:59:29;40.30;49.50
63802;DHT22;49949;43.060;25.624;2023-07-13T10:01:55;40.20;50.30
63802;DHT22;49949;43.060;25.624;2023-07-13T10:04:35;40.10;51.00
63802;DHT22;49949;43.060;25.624;2023-07-13T10:07:09;40.00;51.30
63802;DHT22;49949;43.060;25.624;2023-07-13T10:09:36;39.80;52.30
63802;DHT22;49949;43.060;25.624;2023-07-13T10:12:12;39.60;51.60
63802;DHT22;49949;43.060;25.624;2023-07-13T10:14:39;39.90;50.90
63802;DHT22;49949;43.060;25.624;2023-07-13T10:17:12;40.10;51.60
63802;DHT22;49949;43.060;25.624;2023-07-13T10:19:38;40.10;52.30
63802;DHT22;49949;43.060;25.624;2023-07-13T10:25:21;39.90;50.80
63802;DHT22;49949;43.060;25.624;2023-07-13T10:27:51;39.80;51.20
63802;DHT22;49949;43.060;25.624;2023-07-13T10:30:27;39.70;50.20
63802;DHT22;49949;43.060;25.624;2023-07-13T10:33:03;39.80;49.50
63802;DHT22;49949;43.060;25.624;2023-07-13T10:35:31;40.00;50.70
63802;DHT22;49949;43.060;25.624;2023-07-13T10:38:03;40.10;50.10
63802;DHT22;49949;43.060;25.624;2023-07-13T10:40:48;40.10;48.70
63802;DHT22;49949;43.060;25.624;2023-07-13T10:43:35;40.10;48.00
63802;DHT22;49949;43.060;25.624;2023-07-13T10:46:06;39.70;49.20
63802;DHT22;49949;43.060;25.624;2023-07-13T10:48:34;39.60;50.20
63802;DHT22;49949;43.060;25.624;2023-07-13T10:51:05;39.70;48.60
63802;DHT22;49949;43.060;25.624;2023-07-13T10:53:35;39.70;46.90
63802;DHT22;49949;43.060;25.624;2023-07-13T10:56:18;40.00;47.40
63802;DHT22;49949;43.060;25.624;2023-07-13T10:58:45;40.10;48.20
63802;DHT22;49949;43.060;25.624;2023-07-13T11:18:45;39.80;44.40
63802;DHT22;49949;43.060;25.624;2023-07-13T11:21:22;39.50;45.40
63802;DHT22;49949;43.060;25.624;2023-07-13T11:24:13;39.50;44.90
63802;DHT22;49949;43.060;25.624;2023-07-13T11:26:51;39.30;43.90
63802;DHT22;49949;43.060;25.624;2023-07-13T11:31:56;39.50;44.00
63802;DHT22;49949;43.060;25.624;2023-07-13T11:34:36;39.50;42.00
63802;DHT22;49949;43.060;25.624;2023-07-13T11:37:02;39.70;43.20
63802;DHT22;49949;43.060;25.624;2023-07-13T11:39:33;39.90;43.10
63802;DHT22;49949;43.060;25.624;2023-07-13T11:42:05;40.00;44.40
63802;DHT22;49949;43.060;25.624;2023-07-13T11:44:33;40.20;44.70
63802;DHT22;49949;43.060;25.624;2023-07-13T11:47:14;40.10;44.20
63802;DHT22;49949;43.060;25.624;2023-07-13T11:49:45;40.20;44.70
63802;DHT22;49949;43.060;25.624;2023-07-13T11:52:16;40.40;44.00
63802;DHT22;49949;43.060;25.624;2023-07-13T11:54:53;40.50;44.30
63802;DHT22;49949;43.060;25.624;2023-07-13T11:57:29;40.60;46.50
63802;DHT22;49949;43.060;25.624;2023-07-13T11:59:58;40.60;44.00
63802;DHT22;49949;43.060;25.624;2023-07-13T12:02:29;40.70;41.90
63802;DHT22;49949;43.060;25.624;2023-07-13T12:04:56;40.60;41.60
63802;DHT22;49949;43.060;25.624;2023-07-13T12:07:22;40.50;43.40
63802;DHT22;49949;43.060;25.624;2023-07-13T12:09:48;40.60;42.70
63802;DHT22;49949;43.060;25.624;2023-07-13T12:12:20;40.60;42.70
63802;DHT22;49949;43.060;25.624;2023-07-13T12:14:46;40.60;44.00
63802;DHT22;49949;43.060;25.624;2023-07-13T12:17:19;40.60;42.50
63802;DHT22;49949;43.060;25.624;2023-07-13T12:19:47;40.80;42.00
63802;DHT22;49949;43.060;25.624;2023-07-13T12:22:14;40.90;43.20
63802;DHT22;49949;43.060;25.624;2023-07-13T12:24:41;40.90;43.30
63802;DHT22;49949;43.060;25.624;2023-07-13T12:27:21;40.90;43.20
63802;DHT22;49949;43.060;25.624;2023-07-13T12:29:59;40.90;43.00
63802;DHT22;49949;43.060;25.624;2023-07-13T12:32:26;41.00;43.20
63802;DHT22;49949;43.060;25.624;2023-07-13T12:35:04;41.00;43.50
63802;DHT22;49949;43.060;25.624;2023-07-13T12:37:34;40.90;43.00
63802;DHT22;49949;43.060;25.624;2023-07-13T12:40:01;40.80;45.50
63802;DHT22;49949;43.060;25.624;2023-07-13T12:42:29;40.60;44.90
63802;DHT22;49949;43.060;25.624;2023-07-13T12:45:02;40.60;44.70
63802;DHT22;49949;43.060;25.624;2023-07-13T12:47:30;40.60;44.00
63802;DHT22;49949;43.060;25.624;2023-07-13T12:49:58;40.70;43.50
63802;DHT22;49949;43.060;25.624;2023-07-13T12:55:18;40.60;42.50
63802;DHT22;49949;43.060;25.624;2023-07-13T12:57:51;40.50;44.00
63802;DHT22;49949;43.060;25.624;2023-07-13T13:00:32;40.70;44.10
63802;DHT22;49949;43.060;25.624;2023-07-13T13:03:04;40.80;44.70
63802;DHT22;49949;43.060;25.624;2023-07-13T13:05:32;40.70;43.70
63802;DHT22;49949;43.060;25.624;2023-07-13T13:07:59;40.80;44.40
63802;DHT22;49949;43.060;25.624;2023-07-13T13:10:25;40.90;45.90
63802;DHT22;49949;43.060;25.624;2023-07-13T13:12:52;40.70;43.30
63802;DHT22;49949;43.060;25.624;2023-07-13T13:15:18;40.70;44.00
63802;DHT22;49949;43.060;25.624;2023-07-13T13:17:44;40.70;43.50
63802;DHT22;49949;43.060;25.624;2023-07-13T13:20:20;40.70;43.50
63802;DHT22;49949;43.060;25.624;2023-07-13T13:22:49;40.60;43.60
63802;DHT22;49949;43.060;25.624;2023-07-13T13:25:15;40.60;43.50
63802;DHT22;49949;43.060;25.624;2023-07-13T13:27:41;40.80;43.90
63802;DHT22;49949;43.060;25.624;2023-07-13T13:30:16;40.90;44.70
63802;DHT22;49949;43.060;25.624;2023-07-13T13:32:44;40.80;43.60
63802;DHT22;49949;43.060;25.624;2023-07-13T13:35:15;40.90;43.10
63802;DHT22;49949;43.060;25.624;2023-07-13T13:37:41;40.90;42.40
63802;DHT22;49949;43.060;25.624;2023-07-13T13:40:18;40.90;42.90
63802;DHT22;49949;43.060;25.624;2023-07-13T13:42:44;41.00;43.90
63802;DHT22;49949;43.060;25.624;2023-07-13T13:45:11;41.00;43.40
63802;DHT22;49949;43.060;25.624;2023-07-13T13:47:38;41.00;43.00
63802;DHT22;49949;43.060;25.624;2023-07-13T13:50:31;41.00;43.50
63802;DHT22;49949;43.060;25.624;2023-07-13T13:52:56;41.00;43.80
63802;DHT22;49949;43.060;25.624;2023-07-13T13:55:22;41.00;45.00
63802;DHT22;49949;43.060;25.624;2023-07-13T13:57:50;41.00;45.00
63802;DHT22;49949;43.060;25.624;2023-07-13T14:00:17;40.90;42.40
63802;DHT22;49949;43.060;25.624;2023-07-13T14:02:47;41.00;42.80
63802;DHT22;49949;43.060;25.624;2023-07-13T14:05:15;40.80;43.50
63802;DHT22;49949;43.060;25.624;2023-07-13T14:07:43;40.60;46.20
63802;DHT22;49949;43.060;25.624;2023-07-13T14:10:14;40.60;45.90
63802;DHT22;49949;43.060;25.624;2023-07-13T14:12:42;40.70;44.70
63802;DHT22;49949;43.060;25.624;2023-07-13T14:15:28;40.70;46.60
63802;DHT22;49949;43.060;25.624;2023-07-13T14:17:56;40.90;45.00
63802;DHT22;49949;43.060;25.624;2023-07-13T14:20:24;40.90;46.70
63802;DHT22;49949;43.060;25.624;2023-07-13T14:22:51;40.90;47.00
63802;DHT22;49949;43.060;25.624;2023-07-13T14:25:19;40.80;44.40
63802;DHT22;49949;43.060;25.624;2023-07-13T14:27:45;40.90;45.50
63802;DHT22;49949;43.060;25.624;2023-07-13T14:30:14;40.90;45.40
63802;DHT22;49949;43.060;25.624;2023-07-13T14:32:40;40.80;46.00
63802;DHT22;49949;43.060;25.624;2023-07-13T14:35:07;40.90;44.60
63802;DHT22;49949;43.060;25.624;2023-07-13T14:37:33;40.80;47.20
63802;DHT22;49949;43.060;25.624;2023-07-13T14:39:59;40.60;51.20
63802;DHT22;49949;43.060;25.624;2023-07-13T14:42:25;40.50;49.40
63802;DHT22;49949;43.060;25.624;2023-07-13T14:44:51;40.50;51.80
63802;DHT22;49949;43.060;25.624;2023-07-13T14:47:18;40.40;52.50
63802;DHT22;49949;43.060;25.624;2023-07-13T14:49:44;40.30;52.70
63802;DHT22;49949;43.060;25.624;2023-07-13T14:52:21;40.30;52.60
63802;DHT22;49949;43.060;25.624;2023-07-13T14:54:48;40.20;52.00
63802;DHT22;49949;43.060;25.624;2023-07-13T14:57:19;40.20;50.80
63802;DHT22;49949;43.060;25.624;2023-07-13T14:59:45;40.10;51.70
63802;DHT22;49949;43.060;25.624;2023-07-13T15:02:18;39.90;54.90
63802;DHT22;49949;43.060;25.624;2023-07-13T15:04:46;39.90;54.00
63802;DHT22;49949;43.060;25.624;2023-07-13T15:07:11;39.90;55.60
63802;DHT22;49949;43.060;25.624;2023-07-13T15:09:39;39.70;57.50
63802;DHT22;49949;43.060;25.624;2023-07-13T15:12:05;39.80;52.20
63802;DHT22;49949;43.060;25.624;2023-07-13T15:14:31;39.70;55.10
63802;DHT22;49949;43.060;25.624;2023-07-13T15:16:57;39.80;57.70
63802;DHT22;49949;43.060;25.624;2023-07-13T15:19:24;39.50;59.50
63802;DHT22;49949;43.060;25.624;2023-07-13T15:21:51;39.40;57.80
63802;DHT22;49949;43.060;25.624;2023-07-13T15:24:18;39.20;51.80
63802;DHT22;49949;43.060;25.624;2023-07-13T15:26:43;39.20;59.00
63802;DHT22;49949;43.060;25.624;2023-07-13T15:29:12;39.10;59.60
63802;DHT22;49949;43.060;25.624;2023-07-13T15:31:38;39.00;58.20
63802;DHT22;49949;43.060;25.624;2023-07-13T15:34:12;38.90;56.10
63802;DHT22;49949;43.060;25.624;2023-07-13T15:36:38;38.90;58.20
63802;DHT22;49949;43.060;25.624;2023-07-13T15:39:04;38.90;54.30
63802;DHT22;49949;43.060;25.624;2023-07-13T15:41:31;38.90;54.10
63802;DHT22;49949;43.060;25.624;2023-07-13T15:43:59;39.00;56.60
63802;DHT22;49949;43.060;25.624;2023-07-13T15:46:26;39.00;58.10
63802;DHT22;49949;43.060;25.624;2023-07-13T15:48:53;38.80;62.40
63802;DHT22;49949;43.060;25.624;2023-07-13T15:51:26;38.50;63.80
63802;DHT22;49949;43.060;25.624;2023-07-13T15:53:57;38.30;63.70
63802;DHT22;49949;43.060;25.624;2023-07-13T15:56:27;38.10;64.90
63802;DHT22;49949;43.060;25.624;2023-07-13T15:58:54;38.00;66.70
63802;DHT22;49949;43.060;25.624;2023-07-13T16:01:22;37.80;68.40